createdAt,value
2022-07-25T00:04:37.067Z,73.10
2022-07-25T00:09:39.344Z,73.40
2022-07-25T00:14:41.701Z,73.70
2022-07-25T00:19:43.942Z,73.80
2022-07-25T00:24:46.167Z,73.70
2022-07-25T00:29:48.394Z,73.90
2022-07-25T00:34:50.645Z,74.10
2022-07-25T00:39:52.925Z,74.50
2022-07-25T00:44:55.156Z,74.50
2022-07-25T00:49:57.571Z,74.70
2022-07-25T00:54:59.843Z,75.00
2022-07-25T01:00:02.547Z,75.00
2022-07-25T01:05:06.800Z,75.30
2022-07-25T01:10:12.492Z,75.60
2022-07-25T01:15:16.790Z,75.80
2022-07-25T01:20:20.987Z,75.70
2022-07-25T01:25:24.026Z,75.80
2022-07-25T01:30:26.847Z,76.00
2022-07-25T01:35:29.154Z,75.80
2022-07-25T01:40:31.349Z,76.40
2022-07-25T01:45:34.345Z,76.70
2022-07-25T01:50:36.728Z,76.50
2022-07-25T01:55:38.954Z,76.60
2022-07-25T02:00:41.266Z,76.80
2022-07-25T02:05:43.452Z,76.30
2022-07-25T02:10:45.910Z,76.60
2022-07-25T02:15:48.750Z,76.60
2022-07-25T02:20:50.950Z,76.70
2022-07-25T02:25:53.207Z,76.60
2022-07-25T02:30:55.561Z,76.50
2022-07-25T02:35:57.919Z,76.70
2022-07-25T02:41:00.163Z,76.60
2022-07-25T02:46:02.564Z,76.70
2022-07-25T02:51:04.969Z,76.70
2022-07-25T02:56:07.536Z,76.60
2022-07-25T03:01:10.234Z,76.30
2022-07-25T03:06:12.492Z,76.40
2022-07-25T03:11:16.588Z,76.50
2022-07-25T03:16:18.866Z,76.50
2022-07-25T03:21:21.273Z,76.50
2022-07-25T03:26:23.458Z,76.90
2022-07-25T03:31:28.515Z,77.50
2022-07-25T03:36:30.803Z,77.40
2022-07-25T03:41:33.315Z,77.00
2022-07-25T03:46:35.533Z,78.10
2022-07-25T03:51:38.041Z,78.10
2022-07-25T04:01:53.205Z,77.30
2022-07-25T04:06:55.395Z,77.60
2022-07-25T04:11:57.583Z,77.90
2022-07-25T04:17:00.016Z,78.30
2022-07-25T04:22:02.291Z,78.30
2022-07-25T04:27:04.473Z,79.30
2022-07-25T04:32:07.138Z,78.50
2022-07-25T04:37:09.544Z,78.10
2022-07-25T04:42:11.716Z,78.00
2022-07-25T04:47:13.873Z,78.00
2022-07-25T04:52:16.039Z,77.70
2022-07-25T04:57:18.379Z,77.60
2022-07-25T05:02:20.799Z,77.30
2022-07-25T05:07:22.965Z,77.40
2022-07-25T05:12:25.155Z,77.60
2022-07-25T05:17:27.362Z,77.40
2022-07-25T05:22:29.784Z,76.50
2022-07-25T05:27:31.946Z,76.70
2022-07-25T05:32:34.135Z,75.20
2022-07-25T05:37:37.393Z,74.90
2022-07-25T05:42:39.565Z,74.70
2022-07-25T05:47:41.826Z,75.20
2022-07-25T05:52:44.048Z,72.80
2022-07-25T05:57:46.221Z,70.40
2022-07-25T06:02:48.544Z,69.80
2022-07-25T06:07:50.817Z,69.30
2022-07-25T06:12:53.104Z,70.00
2022-07-25T06:17:56.340Z,69.20
2022-07-25T06:22:58.555Z,69.40
2022-07-25T06:28:01.591Z,70.10
2022-07-25T06:33:03.812Z,69.80
2022-07-25T06:38:05.961Z,69.60
2022-07-25T06:43:08.223Z,70.30
2022-07-25T06:48:10.370Z,69.10
2022-07-25T06:53:12.849Z,68.50
2022-07-25T06:58:15.035Z,69.20
2022-07-25T07:03:17.394Z,69.70
2022-07-25T07:08:19.586Z,69.00
2022-07-25T07:13:24.627Z,68.10
2022-07-25T07:18:27.049Z,65.80
2022-07-25T07:23:29.294Z,62.30
2022-07-25T07:28:32.073Z,63.60
2022-07-25T07:33:35.104Z,64.00
2022-07-25T07:38:37.298Z,63.90
2022-07-25T07:43:39.484Z,65.00
2022-07-25T07:48:41.695Z,64.20
2022-07-25T07:54:03.884Z,62.00
2022-07-25T07:59:06.332Z,63.20
2022-07-25T08:04:08.781Z,65.30
2022-07-25T08:09:11.090Z,66.90
2022-07-25T08:14:13.288Z,68.20
2022-07-25T08:19:15.453Z,67.40
2022-07-25T08:24:17.643Z,67.60
2022-07-25T08:29:22.867Z,67.40
2022-07-25T08:34:28.505Z,67.40
2022-07-25T08:39:31.072Z,67.00
2022-07-25T08:44:37.830Z,67.00
2022-07-25T08:49:40.188Z,68.20
2022-07-25T08:54:43.714Z,67.70
2022-07-25T08:59:46.027Z,68.10
2022-07-25T09:04:48.846Z,68.80
2022-07-25T09:09:51.244Z,69.10
2022-07-25T09:14:54.094Z,71.30
2022-07-25T09:19:57.260Z,72.80
2022-07-25T09:24:59.423Z,73.70
2022-07-25T09:30:11.717Z,71.90
2022-07-25T09:35:14.134Z,70.70
2022-07-25T09:40:16.380Z,70.90
2022-07-25T09:45:18.548Z,70.80
2022-07-25T09:50:22.113Z,70.00
2022-07-25T09:55:24.635Z,69.50
2022-07-25T10:00:29.027Z,69.80
2022-07-25T10:06:11.077Z,68.80
2022-07-25T10:11:30.240Z,68.80
2022-07-25T10:16:33.057Z,68.80
2022-07-25T10:21:35.269Z,65.00
2022-07-25T10:26:39.936Z,66.70
2022-07-25T10:31:50.384Z,65.60
2022-07-25T10:36:57.042Z,65.00
2022-07-25T10:42:02.721Z,63.50
2022-07-25T10:47:13.682Z,66.10
2022-07-25T10:52:18.128Z,64.50
2022-07-25T10:57:21.289Z,64.70
2022-07-25T11:02:24.324Z,65.20
2022-07-25T11:07:28.603Z,67.00
2022-07-25T11:12:31.306Z,65.80
2022-07-25T11:17:34.331Z,67.80
2022-07-25T11:22:36.540Z,66.60
2022-07-25T11:27:38.723Z,66.80
2022-07-25T11:32:45.436Z,65.60
2022-07-25T11:37:50.734Z,65.10
2022-07-25T11:42:55.291Z,64.80
2022-07-25T11:48:14.319Z,69.40
2022-07-25T11:53:18.451Z,69.20
2022-07-25T11:58:23.795Z,67.50
2022-07-25T12:03:26.114Z,68.20
2022-07-25T12:08:28.415Z,67.10
2022-07-25T12:13:31.056Z,66.90
2022-07-25T12:18:33.188Z,67.30
2022-07-25T12:23:35.468Z,65.60
2022-07-25T12:28:37.700Z,66.10
2022-07-25T12:33:39.903Z,68.50
2022-07-25T12:38:42.128Z,66.60
2022-07-25T12:43:44.512Z,68.90
2022-07-25T12:48:47.141Z,67.70
2022-07-25T12:53:49.360Z,68.60
2022-07-25T12:58:51.721Z,69.70
2022-07-25T13:03:53.980Z,71.20
2022-07-25T13:08:56.120Z,72.30
2022-07-25T13:13:58.287Z,73.10
2022-07-25T13:19:00.478Z,73.00
2022-07-25T13:24:03.197Z,72.00
2022-07-25T13:29:11.592Z,69.90
2022-07-25T13:34:14.871Z,68.40
2022-07-25T13:39:17.101Z,67.30
2022-07-25T13:44:19.295Z,66.70
2022-07-25T13:49:21.754Z,66.30
2022-07-25T13:54:23.964Z,65.70
2022-07-25T13:59:26.148Z,65.70
2022-07-25T14:04:28.355Z,67.80
2022-07-25T14:09:30.789Z,63.80
2022-07-25T14:14:32.947Z,63.80
2022-07-25T14:19:35.183Z,64.90
2022-07-25T14:24:37.345Z,65.20
2022-07-25T14:29:39.488Z,63.60
2022-07-25T14:34:41.831Z,63.60
2022-07-25T14:39:44.001Z,64.60
2022-07-25T14:44:46.192Z,64.60
2022-07-25T14:49:49.465Z,63.60
2022-07-25T14:54:51.660Z,64.20
2022-07-25T14:59:53.818Z,63.50
2022-07-25T15:04:56.091Z,62.20
2022-07-25T15:09:58.310Z,62.60
2022-07-25T15:15:00.471Z,62.00
2022-07-25T15:20:02.690Z,61.00
2022-07-25T15:30:29.464Z,60.70
2022-07-25T15:35:31.832Z,59.40
2022-07-25T15:40:34.041Z,59.50
2022-07-25T15:45:39.387Z,59.00
2022-07-25T15:50:44.737Z,59.60
2022-07-25T15:55:47.198Z,60.40
2022-07-25T16:00:49.681Z,60.50
2022-07-25T16:05:53.777Z,60.80
2022-07-25T16:10:56.279Z,62.80
2022-07-25T16:15:58.681Z,61.70
2022-07-25T16:21:00.858Z,60.20
2022-07-25T16:26:03.969Z,59.90
2022-07-25T16:31:07.257Z,60.90
2022-07-25T16:36:10.927Z,61.00
2022-07-25T16:41:13.128Z,61.40
2022-07-25T16:46:15.701Z,62.40
2022-07-25T16:51:17.884Z,62.80
2022-07-25T16:56:20.399Z,63.10
2022-07-25T17:01:24.728Z,63.50
2022-07-25T17:06:27.256Z,62.80
2022-07-25T17:11:30.082Z,62.40
2022-07-25T17:16:32.641Z,63.20
2022-07-25T17:21:34.924Z,64.20
2022-07-25T17:26:37.319Z,65.10
2022-07-25T17:31:39.572Z,64.70
2022-07-25T17:36:42.509Z,65.30
2022-07-25T17:41:44.800Z,66.20
2022-07-25T17:46:47.189Z,66.00
2022-07-25T17:51:49.533Z,66.60
2022-07-25T17:56:52.009Z,66.00
2022-07-25T18:01:54.311Z,65.40
2022-07-25T18:06:56.830Z,67.10
2022-07-25T18:12:00.213Z,67.00
2022-07-25T18:17:03.455Z,68.00
2022-07-25T18:22:05.977Z,68.30
2022-07-25T18:27:08.204Z,68.90
2022-07-25T18:32:10.497Z,69.80
2022-07-25T18:37:12.668Z,70.40
2022-07-25T18:42:15.085Z,71.60
2022-07-25T18:47:17.348Z,72.00
2022-07-25T18:52:21.895Z,71.70
2022-07-25T18:57:24.065Z,72.60
2022-07-25T19:02:26.473Z,72.90
2022-07-25T19:07:31.088Z,73.10
2022-07-25T19:12:33.299Z,73.00
2022-07-25T19:17:37.662Z,73.10
2022-07-25T19:22:39.872Z,73.10
2022-07-25T19:27:42.177Z,73.10
2022-07-25T19:32:45.026Z,72.90
2022-07-25T19:37:47.212Z,73.30
2022-07-25T19:42:49.361Z,73.30
2022-07-25T19:47:51.950Z,73.60
2022-07-25T19:52:54.392Z,73.50
2022-07-25T19:57:56.678Z,73.90
2022-07-25T20:02:58.916Z,74.10
2022-07-25T20:08:01.161Z,74.10
2022-07-25T20:13:03.593Z,73.90
2022-07-25T20:18:05.780Z,74.70
2022-07-25T20:23:07.981Z,75.20
2022-07-25T20:28:10.172Z,75.10
2022-07-25T20:33:12.755Z,75.20
2022-07-25T20:38:15.132Z,76.10
2022-07-25T20:43:17.868Z,76.50
2022-07-25T20:48:20.250Z,76.20
2022-07-25T20:53:23.240Z,76.80
2022-07-25T20:58:25.457Z,76.70
2022-07-25T21:03:28.170Z,76.70
2022-07-25T21:08:30.528Z,77.50
2022-07-25T21:13:33.080Z,77.60
2022-07-25T21:18:35.458Z,78.40
2022-07-25T21:23:38.796Z,78.50
2022-07-25T21:28:41.578Z,79.90
2022-07-25T21:33:43.778Z,81.30
2022-07-25T21:38:46.187Z,81.00
2022-07-25T21:43:48.340Z,81.10
2022-07-25T21:49:10.829Z,81.50
2022-07-25T21:54:13.527Z,81.30
2022-07-25T21:59:15.816Z,81.60
2022-07-25T22:04:18.155Z,81.70
2022-07-25T22:09:20.421Z,82.40
2022-07-25T22:14:22.795Z,83.30
2022-07-25T22:19:25.027Z,84.70
2022-07-25T22:24:27.464Z,84.30
2022-07-25T22:29:29.796Z,84.50
2022-07-25T22:34:32.144Z,84.30
2022-07-25T22:39:34.461Z,85.70
2022-07-25T22:44:36.647Z,84.90
2022-07-25T22:49:38.853Z,84.60
2022-07-25T22:54:41.040Z,85.20
2022-07-25T22:59:43.298Z,85.40
2022-07-25T23:04:45.513Z,84.90
2022-07-25T23:09:47.651Z,85.40
2022-07-25T23:14:49.750Z,85.20
2022-07-25T23:19:52.609Z,85.00
2022-07-25T23:24:56.102Z,84.70
2022-07-25T23:29:58.375Z,85.30
2022-07-25T23:35:00.776Z,85.10
2022-07-25T23:40:03.433Z,84.70
2022-07-25T23:45:06.628Z,85.20
2022-07-25T23:50:10.647Z,85.30
2022-07-25T23:55:13.026Z,85.50
